sensor_id;sensor_type;location;lat;lon;timestamp;pressure;altitude;pressure_sealevel;temperature;humidity
69630;BME280;56857;52.212;5.496;2023-02-13T00:00:42;103866.69;;;7.50;100.00
69630;BME280;56857;52.212;5.496;2023-02-13T00:03:08;103864.06;;;7.50;100.00
69630;BME280;56857;52.212;5.496;2023-02-13T00:05:34;103860.50;;;7.51;100.00
69630;BME280;56857;52.212;5.496;2023-02-13T00:07:59;103862.25;;;7.50;100.00
69630;BME280;56857;52.212;5.496;2023-02-13T00:10:24;103856.97;;;7.50;100.00
69630;BME280;56857;52.212;5.496;2023-02-13T00:12:50;103859.56;;;7.52;100.00
69630;BME280;56857;52.212;5.496;2023-02-13T00:15:16;103862.13;;;7.53;100.00
69630;BME280;56857;52.212;5.496;2023-02-13T00:17:41;103854.19;;;7.53;100.00
69630;BME280;56857;52.212;5.496;2023-02-13T00:20:08;103846.22;;;7.55;100.00
69630;BME280;56857;52.212;5.496;2023-02-13T00:22:35;103852.59;;;7.51;100.00
69630;BME280;56857;52.212;5.496;2023-02-13T00:25:00;103850.94;;;7.48;100.00
69630;BME280;56857;52.212;5.496;2023-02-13T00:27:26;103851.78;;;7.49;100.00
69630;BME280;56857;52.212;5.496;2023-02-13T00:29:51;103841.94;;;7.52;100.00
69630;BME280;56857;52.212;5.496;2023-02-13T00:32:16;103840.09;;;7.54;100.00
69630;BME280;56857;52.212;5.496;2023-02-13T00:34:42;103842.72;;;7.54;100.00
69630;BME280;56857;52.212;5.496;2023-02-13T00:37:07;103841.00;;;7.53;100.00
69630;BME280;56857;52.212;5.496;2023-02-13T00:39:32;103842.78;;;7.53;100.00
69630;BME280;56857;52.212;5.496;2023-02-13T00:41:57;103840.28;;;7.50;100.00
69630;BME280;56857;52.212;5.496;2023-02-13T00:44:23;103840.38;;;7.48;100.00
69630;BME280;56857;52.212;5.496;2023-02-13T00:46:48;103839.44;;;7.49;100.00
69630;BME280;56857;52.212;5.496;2023-02-13T00:49:13;103843.97;;;7.47;100.00
69630;BME280;56857;52.212;5.496;2023-02-13T00:51:39;103840.44;;;7.47;100.00
69630;BME280;56857;52.212;5.496;2023-02-13T00:54:04;103832.63;;;7.45;100.00
69630;BME280;56857;52.212;5.496;2023-02-13T00:56:29;103837.97;;;7.43;100.00
69630;BME280;56857;52.212;5.496;2023-02-13T00:58:55;103835.31;;;7.43;100.00
69630;BME280;56857;52.212;5.496;2023-02-13T01:01:20;103834.41;;;7.45;100.00
69630;BME280;56857;52.212;5.496;2023-02-13T01:03:46;103828.28;;;7.44;100.00
69630;BME280;56857;52.212;5.496;2023-02-13T01:06:11;103835.16;;;7.47;100.00
69630;BME280;56857;52.212;5.496;2023-02-13T01:08:40;103835.09;;;7.48;100.00
69630;BME280;56857;52.212;5.496;2023-02-13T01:11:06;103837.81;;;7.47;100.00
69630;BME280;56857;52.212;5.496;2023-02-13T01:13:31;103833.31;;;7.49;100.00
69630;BME280;56857;52.212;5.496;2023-02-13T01:15:57;103838.50;;;7.50;100.00
69630;BME280;56857;52.212;5.496;2023-02-13T01:18:22;103839.38;;;7.51;100.00
69630;BME280;56857;52.212;5.496;2023-02-13T01:20:59;103842.88;;;7.51;100.00
69630;BME280;56857;52.212;5.496;2023-02-13T01:23:29;103837.59;;;7.51;100.00
69630;BME280;56857;52.212;5.496;2023-02-13T01:25:54;103841.09;;;7.52;100.00
69630;BME280;56857;52.212;5.496;2023-02-13T01:28:19;103844.56;;;7.52;100.00
69630;BME280;56857;52.212;5.496;2023-02-13T01:30:51;103835.88;;;7.50;100.00
69630;BME280;56857;52.212;5.496;2023-02-13T01:33:17;103840.25;;;7.51;100.00
69630;BME280;56857;52.212;5.496;2023-02-13T01:35:42;103833.41;;;7.47;100.00
69630;BME280;56857;52.212;5.496;2023-02-13T01:38:07;103829.97;;;7.45;100.00
69630;BME280;56857;52.212;5.496;2023-02-13T01:40:33;103832.63;;;7.45;100.00
69630;BME280;56857;52.212;5.496;2023-02-13T01:42:58;103836.03;;;7.47;100.00
69630;BME280;56857;52.212;5.496;2023-02-13T01:45:29;103835.16;;;7.47;100.00
69630;BME280;56857;52.212;5.496;2023-02-13T01:48:13;103828.44;;;7.41;100.00
69630;BME280;56857;52.212;5.496;2023-02-13T01:50:54;103819.72;;;7.39;100.00
69630;BME280;56857;52.212;5.496;2023-02-13T01:55:57;103820.56;;;7.39;100.00
69630;BME280;56857;52.212;5.496;2023-02-13T01:58:27;103819.56;;;7.42;100.00
69630;BME280;56857;52.212;5.496;2023-02-13T02:00:54;103823.91;;;7.43;100.00
69630;BME280;56857;52.212;5.496;2023-02-13T02:06:10;103812.81;;;7.36;100.00
69630;BME280;56857;52.212;5.496;2023-02-13T02:08:38;103807.47;;;7.38;100.00
69630;BME280;56857;52.212;5.496;2023-02-13T02:11:10;103803.03;;;7.38;100.00
69630;BME280;56857;52.212;5.496;2023-02-13T02:13:39;103807.47;;;7.38;100.00
69630;BME280;56857;52.212;5.496;2023-02-13T02:16:05;103814.50;;;7.37;100.00
69630;BME280;56857;52.212;5.496;2023-02-13T02:18:30;103803.09;;;7.37;100.00
69630;BME280;56857;52.212;5.496;2023-02-13T02:35:18;103808.22;;;7.40;100.00
69630;BME280;56857;52.212;5.496;2023-02-13T02:38:06;103809.97;;;7.41;100.00
69630;BME280;56857;52.212;5.496;2023-02-13T02:40:42;103806.44;;;7.40;100.00
69630;BME280;56857;52.212;5.496;2023-02-13T02:46:15;103803.94;;;7.37;100.00
69630;BME280;56857;52.212;5.496;2023-02-13T02:49:06;103795.19;;;7.37;100.00
69630;BME280;56857;52.212;5.496;2023-02-13T02:56:45;103793.34;;;7.39;100.00
69630;BME280;56857;52.212;5.496;2023-02-13T02:59:15;103795.88;;;7.40;100.00
69630;BME280;56857;52.212;5.496;2023-02-13T03:01:44;103800.25;;;7.41;100.00
69630;BME280;56857;52.212;5.496;2023-02-13T03:04:18;103797.66;;;7.40;100.00
69630;BME280;56857;52.212;5.496;2023-02-13T03:07:11;103795.03;;;7.40;100.00
69630;BME280;56857;52.212;5.496;2023-02-13T03:09:41;103796.13;;;7.36;100.00
69630;BME280;56857;52.212;5.496;2023-02-13T03:12:10;103799.75;;;7.33;100.00
69630;BME280;56857;52.212;5.496;2023-02-13T03:14:36;103804.25;;;7.31;100.00
69630;BME280;56857;52.212;5.496;2023-02-13T03:17:02;103806.03;;;7.31;100.00
69630;BME280;56857;52.212;5.496;2023-02-13T03:19:41;103794.63;;;7.30;100.00
69630;BME280;56857;52.212;5.496;2023-02-13T03:22:57;103808.53;;;7.34;100.00
69630;BME280;56857;52.212;5.496;2023-02-13T03:25:10;103803.25;;;7.34;100.00
69630;BME280;56857;52.212;5.496;2023-02-13T03:27:50;103803.25;;;7.34;100.00
69630;BME280;56857;52.212;5.496;2023-02-13T03:33:14;103799.59;;;7.36;100.00
69630;BME280;56857;52.212;5.496;2023-02-13T03:35:52;103801.31;;;7.37;100.00
69630;BME280;56857;52.212;5.496;2023-02-13T03:38:28;103797.06;;;7.35;100.00
69630;BME280;56857;52.212;5.496;2023-02-13T03:41:03;103794.34;;;7.36;100.00
69630;BME280;56857;52.212;5.496;2023-02-13T03:43:35;103797.75;;;7.38;100.00
69630;BME280;56857;52.212;5.496;2023-02-13T03:46:04;103795.97;;;7.39;100.00
69630;BME280;56857;52.212;5.496;2023-02-13T03:48:35;103802.09;;;7.39;100.00
69630;BME280;56857;52.212;5.496;2023-02-13T03:51:02;103794.19;;;7.39;100.00
69630;BME280;56857;52.212;5.496;2023-02-13T03:53:32;103796.13;;;7.36;100.00
69630;BME280;56857;52.212;5.496;2023-02-13T03:56:01;103800.69;;;7.32;100.00
69630;BME280;56857;52.212;5.496;2023-02-13T03:58:30;103798.97;;;7.31;100.00
69630;BME280;56857;52.212;5.496;2023-02-13T04:00:59;103795.47;;;7.31;100.00
69630;BME280;56857;52.212;5.496;2023-02-13T04:03:49;103790.16;;;7.32;100.00
69630;BME280;56857;52.212;5.496;2023-02-13T04:06:22;103789.19;;;7.33;100.00
69630;BME280;56857;52.212;5.496;2023-02-13T04:08:48;103790.06;;;7.34;100.00
69630;BME280;56857;52.212;5.496;2023-02-13T04:11:17;103791.78;;;7.35;100.00
69630;BME280;56857;52.212;5.496;2023-02-13T04:13:56;103796.34;;;7.31;100.00
69630;BME280;56857;52.212;5.496;2023-02-13T04:16:41;103793.69;;;7.31;100.00
69630;BME280;56857;52.212;5.496;2023-02-13T04:19:27;103796.34;;;7.31;100.00
69630;BME280;56857;52.212;5.496;2023-02-13T04:21:58;103791.84;;;7.33;100.00
69630;BME280;56857;52.212;5.496;2023-02-13T04:24:24;103791.00;;;7.33;100.00
69630;BME280;56857;52.212;5.496;2023-02-13T04:26:56;103791.94;;;7.32;100.00
69630;BME280;56857;52.212;5.496;2023-02-13T04:29:23;103793.63;;;7.33;100.00
69630;BME280;56857;52.212;5.496;2023-02-13T04:31:49;103790.19;;;7.31;100.00
69630;BME280;56857;52.212;5.496;2023-02-13T04:34:14;103789.44;;;7.29;100.00
69630;BME280;56857;52.212;5.496;2023-02-13T04:36:40;103786.88;;;7.27;100.00
69630;BME280;56857;52.212;5.496;2023-02-13T04:39:05;103787.66;;;7.29;100.00
69630;BME280;56857;52.212;5.496;2023-02-13T04:41:31;103789.28;;;7.32;100.00
69630;BME280;56857;52.212;5.496;2023-02-13T04:43:56;103792.78;;;7.32;100.00
69630;BME280;56857;52.212;5.496;2023-02-13T04:46:22;103785.63;;;7.34;100.00
69630;BME280;56857;52.212;5.496;2023-02-13T04:48:47;103786.56;;;7.33;100.00
69630;BME280;56857;52.212;5.496;2023-02-13T04:51:12;103784.88;;;7.32;100.00
69630;BME280;56857;52.212;5.496;2023-02-13T04:53:38;103777.94;;;7.30;100.00
69630;BME280;56857;52.212;5.496;2023-02-13T04:56:03;103772.59;;;7.31;100.00
69630;BME280;56857;52.212;5.496;2023-02-13T04:58:29;103783.06;;;7.33;100.00
69630;BME280;56857;52.212;5.496;2023-02-13T05:00:54;103781.28;;;7.33;100.00
69630;BME280;56857;52.212;5.496;2023-02-13T05:03:20;103776.94;;;7.32;100.00
69630;BME280;56857;52.212;5.496;2023-02-13T05:05:45;103768.19;;;7.32;100.00
69630;BME280;56857;52.212;5.496;2023-02-13T05:08:11;103763.13;;;7.27;100.00
69630;BME280;56857;52.212;5.496;2023-02-13T05:10:39;103763.22;;;7.26;100.00
69630;BME280;56857;52.212;5.496;2023-02-13T05:13:04;103764.91;;;7.27;100.00
69630;BME280;56857;52.212;5.496;2023-02-13T05:15:30;103761.41;;;7.26;100.00
69630;BME280;56857;52.212;5.496;2023-02-13T05:17:55;103762.34;;;7.25;100.00
69630;BME280;56857;52.212;5.496;2023-02-13T05:20:21;103762.41;;;7.24;100.00
69630;BME280;56857;52.212;5.496;2023-02-13T05:22:51;103770.47;;;7.20;100.00
69630;BME280;56857;52.212;5.496;2023-02-13T05:25:17;103766.16;;;7.19;100.00
69630;BME280;56857;52.212;5.496;2023-02-13T05:27:42;103763.50;;;7.19;100.00
69630;BME280;56857;52.212;5.496;2023-02-13T05:30:07;103761.78;;;7.18;100.00
69630;BME280;56857;52.212;5.496;2023-02-13T05:32:33;103767.94;;;7.19;100.00
69630;BME280;56857;52.212;5.496;2023-02-13T05:34:58;103765.16;;;7.22;100.00
69630;BME280;56857;52.212;5.496;2023-02-13T05:37:24;103760.72;;;7.23;100.00
69630;BME280;56857;52.212;5.496;2023-02-13T05:39:49;103767.69;;;7.24;100.00
69630;BME280;56857;52.212;5.496;2023-02-13T05:42:14;103760.63;;;7.24;100.00
69630;BME280;56857;52.212;5.496;2023-02-13T05:44:40;103755.28;;;7.26;100.00
69630;BME280;56857;52.212;5.496;2023-02-13T05:47:05;103759.63;;;7.27;100.00
69630;BME280;56857;52.212;5.496;2023-02-13T05:49:30;103764.06;;;7.26;100.00
69630;BME280;56857;52.212;5.496;2023-02-13T05:51:56;103764.06;;;7.26;100.00
69630;BME280;56857;52.212;5.496;2023-02-13T05:54:21;103765.75;;;7.27;100.00
69630;BME280;56857;52.212;5.496;2023-02-13T05:56:46;103768.41;;;7.27;100.00
69630;BME280;56857;52.212;5.496;2023-02-13T05:59:11;103764.13;;;7.25;100.00
69630;BME280;56857;52.212;5.496;2023-02-13T06:01:38;103772.03;;;7.25;100.00
69630;BME280;56857;52.212;5.496;2023-02-13T06:04:04;103759.72;;;7.25;100.00
69630;BME280;56857;52.212;5.496;2023-02-13T06:06:29;103772.03;;;7.25;100.00
69630;BME280;56857;52.212;5.496;2023-02-13T06:08:54;103768.53;;;7.24;100.00
69630;BME280;56857;52.212;5.496;2023-02-13T06:11:20;103765.91;;;7.24;100.00
69630;BME280;56857;52.212;5.496;2023-02-13T06:13:45;103761.56;;;7.23;100.00
69630;BME280;56857;52.212;5.496;2023-02-13T06:16:12;103772.19;;;7.22;100.00
69630;BME280;56857;52.212;5.496;2023-02-13T06:18:38;103761.72;;;7.20;100.00
69630;BME280;56857;52.212;5.496;2023-02-13T06:21:04;103767.94;;;7.19;100.00
69630;BME280;56857;52.212;5.496;2023-02-13T06:23:30;103768.78;;;7.19;100.00
69630;BME280;56857;52.212;5.496;2023-02-13T06:25:55;103777.47;;;7.22;100.00
69630;BME280;56857;52.212;5.496;2023-02-13T06:28:21;103772.13;;;7.23;100.00
69630;BME280;56857;52.212;5.496;2023-02-13T06:30:47;103778.09;;;7.27;100.00
69630;BME280;56857;52.212;5.496;2023-02-13T06:33:12;103771.88;;;7.28;100.00
69630;BME280;56857;52.212;5.496;2023-02-13T06:35:37;103768.34;;;7.29;100.00
69630;BME280;56857;52.212;5.496;2023-02-13T06:38:03;103777.84;;;7.31;100.00
69630;BME280;56857;52.212;5.496;2023-02-13T06:40:28;103774.53;;;7.28;100.00
69630;BME280;56857;52.212;5.496;2023-02-13T06:42:53;103766.84;;;7.23;100.00
69630;BME280;56857;52.212;5.496;2023-02-13T06:45:20;103771.34;;;7.21;100.00
69630;BME280;56857;52.212;5.496;2023-02-13T06:47:46;103777.41;;;7.23;100.00
69630;BME280;56857;52.212;5.496;2023-02-13T06:50:13;103771.19;;;7.24;100.00
69630;BME280;56857;52.212;5.496;2023-02-13T06:52:45;103771.19;;;7.24;100.00
69630;BME280;56857;52.212;5.496;2023-02-13T06:55:10;103773.81;;;7.24;100.00
69630;BME280;56857;52.212;5.496;2023-02-13T06:57:35;103780.75;;;7.27;100.00
69630;BME280;56857;52.212;5.496;2023-02-13T07:00:02;103779.78;;;7.28;100.00
69630;BME280;56857;52.212;5.496;2023-02-13T07:02:27;103778.88;;;7.29;100.00
69630;BME280;56857;52.212;5.496;2023-02-13T07:04:53;103778.03;;;7.28;100.00
69630;BME280;56857;52.212;5.496;2023-02-13T07:07:18;103779.66;;;7.31;100.00
69630;BME280;56857;52.212;5.496;2023-02-13T07:09:43;103781.38;;;7.32;100.00
69630;BME280;56857;52.212;5.496;2023-02-13T07:12:08;103785.72;;;7.33;100.00
69630;BME280;56857;52.212;5.496;2023-02-13T07:14:34;103791.78;;;7.35;100.00
69630;BME280;56857;52.212;5.496;2023-02-13T07:16:59;103787.41;;;7.34;100.00
69630;BME280;56857;52.212;5.496;2023-02-13T07:19:25;103801.41;;;7.36;100.00
69630;BME280;56857;52.212;5.496;2023-02-13T07:21:51;103803.09;;;7.37;100.00
69630;BME280;56857;52.212;5.496;2023-02-13T07:24:16;103797.75;;;7.38;100.00
69630;BME280;56857;52.212;5.496;2023-02-13T07:26:41;103795.88;;;7.40;100.00
69630;BME280;56857;52.212;5.496;2023-02-13T07:29:06;103793.09;;;7.43;100.00
69630;BME280;56857;52.212;5.496;2023-02-13T07:31:33;103800.94;;;7.45;100.00
69630;BME280;56857;52.212;5.496;2023-02-13T07:33:59;103795.56;;;7.47;100.00
69630;BME280;56857;52.212;5.496;2023-02-13T07:36:25;103795.66;;;7.45;100.00
69630;BME280;56857;52.212;5.496;2023-02-13T07:38:51;103796.38;;;7.49;100.00
69630;BME280;56857;52.212;5.496;2023-02-13T07:41:16;103796.28;;;7.50;100.00
69630;BME280;56857;52.212;5.496;2023-02-13T07:43:41;103798.06;;;7.50;100.00
69630;BME280;56857;52.212;5.496;2023-02-13T07:46:08;103797.16;;;7.51;100.00
69630;BME280;56857;52.212;5.496;2023-02-13T07:48:34;103800.69;;;7.50;100.00
69630;BME280;56857;52.212;5.496;2023-02-13T07:51:01;103801.56;;;7.50;100.00
69630;BME280;56857;52.212;5.496;2023-02-13T07:53:26;103800.63;;;7.51;100.00
69630;BME280;56857;52.212;5.496;2023-02-13T07:55:52;103803.28;;;7.51;100.00
69630;BME280;56857;52.212;5.496;2023-02-13T07:58:17;103809.41;;;7.52;100.00
69630;BME280;56857;52.212;5.496;2023-02-13T08:00:45;103812.84;;;7.54;100.00
69630;BME280;56857;52.212;5.496;2023-02-13T08:03:11;103815.38;;;7.55;100.00
69630;BME280;56857;52.212;5.496;2023-02-13T08:05:37;103810.97;;;7.56;100.00
69630;BME280;56857;52.212;5.496;2023-02-13T08:08:02;103815.38;;;7.55;100.00
69630;BME280;56857;52.212;5.496;2023-02-13T08:10:27;103815.38;;;7.55;100.00
69630;BME280;56857;52.212;5.496;2023-02-13T08:12:53;103822.31;;;7.58;100.00
69630;BME280;56857;52.212;5.496;2023-02-13T08:15:20;103820.44;;;7.60;100.00
69630;BME280;56857;52.212;5.496;2023-02-13T08:17:45;103820.38;;;7.61;100.00
69630;BME280;56857;52.212;5.496;2023-02-13T08:20:10;103822.06;;;7.62;100.00
69630;BME280;56857;52.212;5.496;2023-02-13T08:22:38;103823.69;;;7.65;100.00
69630;BME280;56857;52.212;5.496;2023-02-13T08:25:04;103825.25;;;7.69;100.00
69630;BME280;56857;52.212;5.496;2023-02-13T08:27:30;103826.03;;;7.71;100.00
69630;BME280;56857;52.212;5.496;2023-02-13T08:29:56;103828.66;;;7.71;100.00
69630;BME280;56857;52.212;5.496;2023-02-13T08:32:23;103823.38;;;7.71;100.00
69630;BME280;56857;52.212;5.496;2023-02-13T08:34:49;103826.81;;;7.73;100.00
69630;BME280;56857;52.212;5.496;2023-02-13T08:37:16;103826.56;;;7.78;100.00
69630;BME280;56857;52.212;5.496;2023-02-13T08:39:42;103819.66;;;7.75;100.00
69630;BME280;56857;52.212;5.496;2023-02-13T08:42:08;103814.53;;;7.72;100.00
69630;BME280;56857;52.212;5.496;2023-02-13T08:44:40;103825.88;;;7.74;100.00
69630;BME280;56857;52.212;5.496;2023-02-13T08:47:07;103828.38;;;7.77;100.00
69630;BME280;56857;52.212;5.496;2023-02-13T08:49:33;103833.34;;;7.83;100.00
69630;BME280;56857;52.212;5.496;2023-02-13T08:52:00;103824.41;;;7.86;100.00
69630;BME280;56857;52.212;5.496;2023-02-13T08:54:27;103832.94;;;7.91;100.00
69630;BME280;56857;52.212;5.496;2023-02-13T08:56:53;103830.22;;;7.93;100.00
69630;BME280;56857;52.212;5.496;2023-02-13T08:59:19;103830.91;;;7.96;100.00
69630;BME280;56857;52.212;5.496;2023-02-13T09:01:44;103831.72;;;7.98;100.00
69630;BME280;56857;52.212;5.496;2023-02-13T09:04:10;103834.25;;;8.00;100.00
69630;BME280;56857;52.212;5.496;2023-02-13T09:06:36;103830.59;;;8.02;100.00
69630;BME280;56857;52.212;5.496;2023-02-13T09:09:03;103821.56;;;8.06;100.00
69630;BME280;56857;52.212;5.496;2023-02-13T09:11:30;103827.56;;;8.10;100.00
69630;BME280;56857;52.212;5.496;2023-02-13T09:13:55;103810.78;;;8.11;100.00
69630;BME280;56857;52.212;5.496;2023-02-13T09:16:21;103819.47;;;8.13;100.00
69630;BME280;56857;52.212;5.496;2023-02-13T09:18:47;103813.28;;;8.14;100.00
69630;BME280;56857;52.212;5.496;2023-02-13T09:21:13;103819.41;;;8.15;100.00
69630;BME280;56857;52.212;5.496;2023-02-13T09:23:39;103815.75;;;8.17;100.00
69630;BME280;56857;52.212;5.496;2023-02-13T09:26:07;103817.53;;;8.17;100.00
69630;BME280;56857;52.212;5.496;2023-02-13T09:28:34;103816.59;;;8.18;100.00
69630;BME280;56857;52.212;5.496;2023-02-13T09:31:04;103824.22;;;8.24;100.00
69630;BME280;56857;52.212;5.496;2023-02-13T09:33:30;103824.81;;;8.29;100.00
69630;BME280;56857;52.212;5.496;2023-02-13T09:35:55;103823.63;;;8.34;100.00
69630;BME280;56857;52.212;5.496;2023-02-13T09:38:20;103824.28;;;8.40;100.00
69630;BME280;56857;52.212;5.496;2023-02-13T09:41:06;103819.59;;;8.45;100.00
69630;BME280;56857;52.212;5.496;2023-02-13T09:43:39;103806.97;;;8.50;100.00
69630;BME280;56857;52.212;5.496;2023-02-13T09:46:32;103815.75;;;8.50;100.00
69630;BME280;56857;52.212;5.496;2023-02-13T09:49:01;103815.53;;;8.55;100.00
69630;BME280;56857;52.212;5.496;2023-02-13T09:51:30;103818.91;;;8.57;100.00
69630;BME280;56857;52.212;5.496;2023-02-13T09:54:02;103817.91;;;8.59;100.00
69630;BME280;56857;52.212;5.496;2023-02-13T09:56:47;103815.09;;;8.63;100.00
69630;BME280;56857;52.212;5.496;2023-02-13T10:05:05;103818.25;;;8.69;100.00
69630;BME280;56857;52.212;5.496;2023-02-13T10:07:52;103817.19;;;8.73;100.00
69630;BME280;56857;52.212;5.496;2023-02-13T10:10:43;103819.66;;;8.76;100.00
69630;BME280;56857;52.212;5.496;2023-02-13T10:13:48;103825.63;;;8.80;100.00
69630;BME280;56857;52.212;5.496;2023-02-13T10:16:21;103821.00;;;8.84;100.00
69630;BME280;56857;52.212;5.496;2023-02-13T10:21:33;103823.56;;;9.01;100.00
69630;BME280;56857;52.212;5.496;2023-02-13T10:24:09;103821.59;;;9.04;100.00
69630;BME280;56857;52.212;5.496;2023-02-13T10:26:39;103817.50;;;9.15;100.00
69630;BME280;56857;52.212;5.496;2023-02-13T10:29:11;103819.63;;;9.24;100.00
69630;BME280;56857;52.212;5.496;2023-02-13T10:31:39;103823.63;;;9.31;100.00
69630;BME280;56857;52.212;5.496;2023-02-13T10:34:11;103814.66;;;9.34;100.00
69630;BME280;56857;52.212;5.496;2023-02-13T10:36:43;103813.81;;;9.33;100.00
69630;BME280;56857;52.212;5.496;2023-02-13T10:39:21;103812.69;;;9.37;100.00
69630;BME280;56857;52.212;5.496;2023-02-13T10:44:47;103804.88;;;9.50;100.00
69630;BME280;56857;52.212;5.496;2023-02-13T10:47:42;103804.59;;;9.55;100.00
69630;BME280;56857;52.212;5.496;2023-02-13T11:00:40;103795.56;;;10.32;100.00
69630;BME280;56857;52.212;5.496;2023-02-13T11:03:36;103795.94;;;10.40;100.00
69630;BME280;56857;52.212;5.496;2023-02-13T11:06:06;103789.78;;;10.54;100.00
69630;BME280;56857;52.212;5.496;2023-02-13T11:08:33;103782.81;;;10.65;100.00
69630;BME280;56857;52.212;5.496;2023-02-13T11:10:59;103787.84;;;10.70;100.00
69630;BME280;56857;52.212;5.496;2023-02-13T11:13:27;103787.78;;;10.99;100.00
69630;BME280;56857;52.212;5.496;2023-02-13T11:15:59;103783.41;;;11.25;100.00
69630;BME280;56857;52.212;5.496;2023-02-13T11:18:28;103774.13;;;11.57;100.00
69630;BME280;56857;52.212;5.496;2023-02-13T11:21:07;103780.69;;;11.92;100.00
69630;BME280;56857;52.212;5.496;2023-02-13T11:23:37;103776.50;;;12.26;100.00
69630;BME280;56857;52.212;5.496;2023-02-13T11:26:22;103762.75;;;12.32;100.00
69630;BME280;56857;52.212;5.496;2023-02-13T11:28:53;103770.94;;;12.42;100.00
69630;BME280;56857;52.212;5.496;2023-02-13T11:33:47;103766.13;;;13.08;100.00
69630;BME280;56857;52.212;5.496;2023-02-13T11:36:23;103760.84;;;13.19;100.00
69630;BME280;56857;52.212;5.496;2023-02-13T11:39:02;103766.22;;;13.30;100.00
69630;BME280;56857;52.212;5.496;2023-02-13T11:41:29;103755.84;;;13.14;100.00
69630;BME280;56857;52.212;5.496;2023-02-13T11:43:59;103752.31;;;13.03;100.00
69630;BME280;56857;52.212;5.496;2023-02-13T11:46:28;103750.50;;;13.03;100.00
69630;BME280;56857;52.212;5.496;2023-02-13T11:48:57;103748.81;;;13.02;100.00
69630;BME280;56857;52.212;5.496;2023-02-13T11:51:43;103742.66;;;13.13;100.00
69630;BME280;56857;52.212;5.496;2023-02-13T11:56:59;103733.84;;;13.48;100.00
69630;BME280;56857;52.212;5.496;2023-02-13T11:59:28;103735.72;;;13.81;100.00
69630;BME280;56857;52.212;5.496;2023-02-13T12:04:27;103728.34;;;13.84;100.00
69630;BME280;56857;52.212;5.496;2023-02-13T12:09:44;103724.31;;;13.79;100.00
69630;BME280;56857;52.212;5.496;2023-02-13T12:12:18;103723.47;;;13.78;100.00
69630;BME280;56857;52.212;5.496;2023-02-13T12:14:45;103717.88;;;13.93;100.00
69630;BME280;56857;52.212;5.496;2023-02-13T12:17:21;103714.25;;;14.05;100.00
69630;BME280;56857;52.212;5.496;2023-02-13T12:19:48;103717.03;;;14.14;100.00
69630;BME280;56857;52.212;5.496;2023-02-13T12:22:35;103713.53;;;14.14;100.00
69630;BME280;56857;52.212;5.496;2023-02-13T12:28:09;103707.53;;;14.55;100.00
69630;BME280;56857;52.212;5.496;2023-02-13T12:33:58;103713.31;;;14.72;100.00
69630;BME280;56857;52.212;5.496;2023-02-13T12:39:38;103709.50;;;14.86;100.00
69630;BME280;56857;52.212;5.496;2023-02-13T12:42:22;103713.03;;;14.86;100.00
69630;BME280;56857;52.212;5.496;2023-02-13T12:45:15;103716.28;;;14.90;100.00
69630;BME280;56857;52.212;5.496;2023-02-13T12:50:22;103709.69;;;14.94;100.00
69630;BME280;56857;52.212;5.496;2023-02-13T12:59:16;103698.91;;;15.16;100.00
69630;BME280;56857;52.212;5.496;2023-02-13T13:01:16;103689.72;;;15.09;100.00
69630;BME280;56857;52.212;5.496;2023-02-13T13:03:50;103688.22;;;14.95;100.00
69630;BME280;56857;52.212;5.496;2023-02-13T13:06:29;103678.72;;;14.70;100.00
69630;BME280;56857;52.212;5.496;2023-02-13T13:23:14;103662.56;;;15.04;100.00
69630;BME280;56857;52.212;5.496;2023-02-13T13:28:22;103657.41;;;15.33;100.00
69630;BME280;56857;52.212;5.496;2023-02-13T13:30:49;103656.97;;;15.38;100.00
69630;BME280;56857;52.212;5.496;2023-02-13T13:33:17;103652.38;;;15.40;100.00
69630;BME280;56857;52.212;5.496;2023-02-13T13:35:56;103652.16;;;15.32;100.00
69630;BME280;56857;52.212;5.496;2023-02-13T13:38:38;103638.16;;;15.18;100.00
69630;BME280;56857;52.212;5.496;2023-02-13T13:44:09;103635.63;;;14.75;100.00
69630;BME280;56857;52.212;5.496;2023-02-13T13:49:57;103635.69;;;14.09;100.00
69630;BME280;56857;52.212;5.496;2023-02-13T13:54:51;103638.63;;;13.83;100.00
69630;BME280;56857;52.212;5.496;2023-02-13T13:57:57;103630.41;;;13.64;100.00
69630;BME280;56857;52.212;5.496;2023-02-13T14:02:42;103629.03;;;13.36;100.00
69630;BME280;56857;52.212;5.496;2023-02-13T14:07:58;103622.53;;;12.93;100.00
69630;BME280;56857;52.212;5.496;2023-02-13T14:12:59;103615.41;;;12.70;100.00
69630;BME280;56857;52.212;5.496;2023-02-13T14:18:21;103617.50;;;12.42;100.00
69630;BME280;56857;52.212;5.496;2023-02-13T14:23:44;103613.31;;;12.27;100.00
69630;BME280;56857;52.212;5.496;2023-02-13T14:31:34;103604.09;;;12.07;100.00
69630;BME280;56857;52.212;5.496;2023-02-13T14:36:38;103607.44;;;11.98;100.00
69630;BME280;56857;52.212;5.496;2023-02-13T14:39:15;103603.22;;;11.95;100.00
69630;BME280;56857;52.212;5.496;2023-02-13T14:44:21;103605.34;;;11.90;100.00
69630;BME280;56857;52.212;5.496;2023-02-13T14:46:49;103601.94;;;11.88;100.00
69630;BME280;56857;52.212;5.496;2023-02-13T14:49:34;103599.41;;;11.87;100.00
69630;BME280;56857;52.212;5.496;2023-02-13T14:52:04;103594.19;;;11.85;100.00
69630;BME280;56857;52.212;5.496;2023-02-13T14:54:35;103588.09;;;11.83;100.00
69630;BME280;56857;52.212;5.496;2023-02-13T14:57:22;103598.22;;;11.78;100.00
69630;BME280;56857;52.212;5.496;2023-02-13T14:59:58;103588.41;;;11.78;100.00
69630;BME280;56857;52.212;5.496;2023-02-13T15:02:27;103595.56;;;11.78;100.00
69630;BME280;56857;52.212;5.496;2023-02-13T15:07:27;103588.97;;;11.71;100.00
69630;BME280;56857;52.212;5.496;2023-02-13T15:09:59;103596.31;;;11.67;100.00
69630;BME280;56857;52.212;5.496;2023-02-13T15:12:31;103594.72;;;11.65;100.00